createdAt,value
2022-09-28T00:00:47.936Z,99186.53
2022-09-28T00:03:14.601Z,99191.69
2022-09-28T00:05:41.238Z,99189.59
2022-09-28T00:08:07.812Z,99186.88
2022-09-28T00:10:34.426Z,99181.19
2022-09-28T00:13:01.854Z,99187.94
2022-09-28T00:15:29.232Z,99185.81
2022-09-28T00:17:55.866Z,99187.94
2022-09-28T00:20:22.821Z,99174.09
2022-09-28T00:22:49.618Z,99190.81
2022-09-28T00:25:17.025Z,99182.13
2022-09-28T00:27:43.656Z,99178.81
2022-09-28T00:30:10.552Z,99181.78
2022-09-28T00:32:37.233Z,99177.28
2022-09-28T00:35:03.967Z,99180.69
2022-09-28T00:37:30.599Z,99176.91
2022-09-28T00:39:57.181Z,99173.34
2022-09-28T00:42:26.829Z,99169.69
2022-09-28T00:44:58.406Z,99169.41
2022-09-28T00:47:38.144Z,99159.84
2022-09-28T00:50:14.649Z,99172.16
2022-09-28T00:52:51.091Z,99172.16
2022-09-28T00:55:24.373Z,99171.91
2022-09-28T00:57:56.113Z,99164.19
2022-09-28T01:00:22.927Z,99165.03
2022-09-28T01:02:50.114Z,99161.22
2022-09-28T01:05:18.466Z,99156.03
2022-09-28T01:07:46.707Z,99154.50
2022-09-28T01:10:14.365Z,99161.56
2022-09-28T01:12:41.080Z,99164.19
2022-09-28T01:15:08.233Z,99148.78
2022-09-28T01:17:34.788Z,99159.66
2022-09-28T01:20:13.730Z,99158.97
2022-09-28T01:23:25.477Z,99155.38
2022-09-28T01:25:57.802Z,99157.28
2022-09-28T01:28:26.585Z,99146.28
2022-09-28T01:31:16.246Z,99157.34
2022-09-28T01:33:50.219Z,99148.94
2022-09-28T01:36:28.140Z,99153.53
2022-09-28T01:39:05.618Z,99147.63
2022-09-28T01:41:36.772Z,99150.81
2022-09-28T01:44:06.129Z,99146.56
2022-09-28T01:46:44.638Z,99140.56
2022-09-28T01:49:36.932Z,99140.03
2022-09-28T01:52:18.585Z,99131.91
2022-09-28T01:54:53.824Z,99139.16
2022-09-28T01:57:26.485Z,99146.25
2022-09-28T02:00:02.364Z,99129.31
2022-09-28T02:02:37.750Z,99139.16
2022-09-28T02:05:18.552Z,99132.50
2022-09-28T02:07:54.581Z,99131.06
2022-09-28T02:10:28.836Z,99131.47
2022-09-28T02:13:01.968Z,99128.16
2022-09-28T02:15:45.996Z,99131.06
2022-09-28T02:18:13.387Z,99122.06
2022-09-28T02:20:42.881Z,99124.09
2022-09-28T02:23:10.509Z,99119.59
2022-09-28T02:25:49.795Z,99122.09
2022-09-28T02:28:16.558Z,99114.78
2022-09-28T02:30:44.940Z,99122.59
2022-09-28T02:33:14.620Z,99123.78
2022-09-28T02:35:42.905Z,99125.31
2022-09-28T02:38:14.493Z,99117.75
2022-09-28T02:40:46.094Z,99122.25
2022-09-28T02:43:18.680Z,99107.56
2022-09-28T02:46:00.108Z,99113.16
2022-09-28T02:48:52.232Z,99105.13
2022-09-28T02:51:48.623Z,99102.75
2022-09-28T02:54:21.661Z,99114.09
2022-09-28T02:57:02.169Z,99110.91
2022-09-28T02:59:36.110Z,99108.06
2022-09-28T03:02:27.775Z,99111.16
2022-09-28T03:05:22.904Z,99101.31
2022-09-28T03:07:59.392Z,99103.09
2022-09-28T03:10:41.844Z,99092.59
2022-09-28T03:13:09.108Z,99089.38
2022-09-28T03:15:36.345Z,99090.47
2022-09-28T03:18:04.042Z,99083.00
2022-09-28T03:20:32.401Z,99081.81
2022-09-28T03:23:23.802Z,99079.13
2022-09-28T03:25:45.996Z,99073.56
2022-09-28T03:28:12.597Z,99088.72
2022-09-28T03:30:39.338Z,99079.97
2022-09-28T03:33:07.048Z,99074.44
2022-09-28T03:35:33.717Z,99076.44
2022-09-28T03:38:00.304Z,99074.81
2022-09-28T03:40:26.984Z,99067.47
2022-09-28T03:42:54.170Z,99068.19
2022-09-28T03:45:20.776Z,99067.59
2022-09-28T03:47:48.691Z,99070.34
2022-09-28T03:50:15.928Z,99070.66
2022-09-28T03:52:42.973Z,99072.56
2022-09-28T03:55:11.034Z,99064.75
2022-09-28T03:57:38.045Z,99071.84
2022-09-28T04:00:06.310Z,99068.66
2022-09-28T04:02:34.821Z,99066.63
2022-09-28T04:05:02.025Z,99076.91
2022-09-28T04:07:31.014Z,99072.06
2022-09-28T04:09:57.942Z,99069.34
2022-09-28T04:12:24.768Z,99059.91
2022-09-28T04:14:51.671Z,99062.03
2022-09-28T04:17:18.584Z,99058.97
2022-09-28T04:19:45.249Z,99059.06
2022-09-28T04:22:11.845Z,99046.44
2022-09-28T04:24:39.101Z,99051.88
2022-09-28T04:27:24.274Z,99051.16
2022-09-28T04:29:50.856Z,99051.63
2022-09-28T04:32:17.549Z,99054.81
2022-09-28T04:34:44.668Z,99048.66
2022-09-28T04:37:11.518Z,99056.47
2022-09-28T04:39:38.208Z,99048.41
2022-09-28T04:42:04.909Z,99046.91
2022-09-28T04:44:31.517Z,99059.41
2022-09-28T04:47:00.661Z,99050.28
2022-09-28T04:49:30.896Z,99049.34
2022-09-28T04:51:57.513Z,99047.81
2022-09-28T04:54:24.161Z,99052.78
2022-09-28T04:56:51.249Z,99056.44
2022-09-28T04:59:18.029Z,99054.53
2022-09-28T05:01:44.690Z,99056.19
2022-09-28T05:04:11.366Z,99064.94
2022-09-28T05:06:38.092Z,99067.44
2022-09-28T05:09:04.692Z,99073.34
2022-09-28T05:11:31.332Z,99066.97
2022-09-28T05:13:57.911Z,99077.38
2022-09-28T05:16:26.285Z,99072.16
2022-09-28T05:18:56.741Z,99071.09
2022-09-28T05:21:25.485Z,99074.38
2022-09-28T05:23:56.009Z,99076.88
2022-09-28T05:26:23.225Z,99068.72
2022-09-28T05:28:49.873Z,99069.75
2022-09-28T05:31:16.802Z,99067.44
2022-09-28T05:33:43.459Z,99059.00
2022-09-28T05:36:11.120Z,99051.88
2022-09-28T05:38:38.016Z,99055.28
2022-09-28T05:41:06.773Z,99059.22
2022-09-28T05:43:33.659Z,99063.78
2022-09-28T05:46:00.645Z,99055.63
2022-09-28T05:48:28.374Z,99055.69
2022-09-28T05:50:55.318Z,99052.44
2022-09-28T05:53:22.162Z,99036.56
2022-09-28T05:55:48.877Z,99038.16
2022-09-28T05:58:15.967Z,99038.75
2022-09-28T06:00:42.822Z,99037.06
2022-09-28T06:03:14.260Z,99035.94
2022-09-28T06:05:41.067Z,99038.81
2022-09-28T06:08:10.580Z,99035.81
2022-09-28T06:10:37.454Z,99030.13
2022-09-28T06:13:04.072Z,99032.50
2022-09-28T06:15:32.395Z,99033.50
2022-09-28T06:18:04.352Z,99038.28
2022-09-28T06:20:34.908Z,99034.34
2022-09-28T06:23:01.832Z,99039.09
2022-09-28T06:25:28.779Z,99033.91
2022-09-28T06:28:02.622Z,99038.06
2022-09-28T06:30:32.750Z,99045.19
2022-09-28T06:33:01.162Z,99035.81
2022-09-28T06:35:30.532Z,99024.31
2022-09-28T06:37:58.567Z,99026.59
2022-09-28T06:40:25.711Z,99025.69
2022-09-28T06:43:00.257Z,99029.41
2022-09-28T06:45:28.480Z,99032.03
2022-09-28T06:48:00.176Z,99021.88
2022-09-28T06:50:28.453Z,99017.47
2022-09-28T06:52:57.190Z,99025.72
2022-09-28T06:55:24.191Z,99015.66
2022-09-28T06:58:07.745Z,99024.53
2022-09-28T07:00:37.130Z,99014.56
2022-09-28T07:03:06.450Z,99022.63
2022-09-28T07:05:36.823Z,99025.88
2022-09-28T07:08:04.746Z,99033.53
2022-09-28T07:10:32.232Z,99034.81
2022-09-28T07:13:02.733Z,99022.81
2022-09-28T07:15:30.042Z,99022.09
2022-09-28T07:18:02.524Z,99018.78
2022-09-28T07:20:30.200Z,99025.88
2022-09-28T07:23:10.031Z,99026.09
2022-09-28T07:25:45.495Z,99019.75
2022-09-28T07:28:12.263Z,99019.13
2022-09-28T07:30:39.034Z,99024.56
2022-09-28T07:33:07.822Z,99030.34
2022-09-28T07:35:34.576Z,99029.38
2022-09-28T07:38:03.637Z,99027.47
2022-09-28T07:40:50.116Z,99034.63
2022-09-28T07:43:20.808Z,99036.34
2022-09-28T07:45:49.318Z,99037.16
2022-09-28T07:48:16.986Z,99029.72
2022-09-28T07:50:53.601Z,99038.00
2022-09-28T07:53:21.491Z,99033.72
2022-09-28T07:55:55.384Z,99033.34
2022-09-28T07:58:22.675Z,99029.53
2022-09-28T08:00:50.149Z,99035.03
2022-09-28T08:03:18.164Z,99038.91
2022-09-28T08:05:46.924Z,99034.88
2022-09-28T08:08:14.485Z,99034.88
2022-09-28T08:10:46.798Z,99033.72
2022-09-28T08:13:15.258Z,99041.03
2022-09-28T08:15:42.667Z,99035.78
2022-09-28T08:18:10.219Z,99034.16
2022-09-28T08:20:55.297Z,99028.97
2022-09-28T08:23:23.359Z,99035.00
2022-09-28T08:25:54.106Z,99046.41
2022-09-28T08:28:22.915Z,99039.28
2022-09-28T08:30:50.720Z,99037.56
2022-09-28T08:33:20.333Z,99042.16
2022-09-28T08:35:48.328Z,99044.81
2022-09-28T08:38:15.389Z,99053.22
2022-09-28T08:40:55.626Z,99055.41
2022-09-28T08:43:57.324Z,99047.97
2022-09-28T08:46:29.287Z,99050.03
2022-09-28T08:49:26.597Z,99051.50
2022-09-28T08:51:59.374Z,99058.19
2022-09-28T08:54:36.154Z,99056.31
2022-09-28T08:57:10.502Z,99050.34
2022-09-28T08:59:58.475Z,99050.91
2022-09-28T09:02:39.779Z,99050.91
2022-09-28T09:05:13.777Z,99048.75
2022-09-28T09:08:08.963Z,99045.56
2022-09-28T09:10:48.403Z,99043.81
2022-09-28T09:13:50.461Z,99042.66
2022-09-28T09:17:00.394Z,99043.09
2022-09-28T09:19:36.256Z,99048.19
2022-09-28T09:22:15.532Z,99047.53
2022-09-28T09:24:50.125Z,99045.97
2022-09-28T09:27:38.077Z,99049.81
2022-09-28T09:30:17.511Z,99044.56
2022-09-28T09:32:54.359Z,99045.47
2022-09-28T09:35:37.537Z,99045.59
2022-09-28T09:38:34.659Z,99050.38
2022-09-28T09:41:42.707Z,99047.84
2022-09-28T09:44:28.921Z,99035.78
2022-09-28T09:46:57.887Z,99045.34
2022-09-28T09:49:36.582Z,99051.97
2022-09-28T09:52:10.730Z,99044.97
2022-09-28T09:55:09.494Z,99044.56
2022-09-28T09:57:47.223Z,99045.56
2022-09-28T10:00:15.471Z,99049.31
2022-09-28T10:02:46.016Z,99049.50
2022-09-28T10:05:12.827Z,99044.66
2022-09-28T10:07:45.309Z,99047.94
2022-09-28T10:10:36.678Z,99052.78
2022-09-28T10:13:03.869Z,99044.91
2022-09-28T10:15:33.711Z,99046.22
2022-09-28T10:18:06.729Z,99049.19
2022-09-28T10:20:37.078Z,99043.28
2022-09-28T10:23:06.824Z,99046.59
2022-09-28T10:25:37.662Z,99047.78
2022-09-28T10:28:07.159Z,99048.97
2022-09-28T10:30:42.139Z,99044.94
2022-09-28T10:33:29.005Z,99055.16
2022-09-28T10:35:56.003Z,99053.88
2022-09-28T10:38:23.584Z,99055.69
2022-09-28T10:40:54.373Z,99050.66
2022-09-28T10:44:06.126Z,99053.00
2022-09-28T10:46:34.884Z,99053.59
2022-09-28T10:49:06.792Z,99058.25
2022-09-28T10:51:48.138Z,99063.50
2022-09-28T10:54:20.866Z,99066.38
2022-09-28T10:56:48.765Z,99062.66
2022-09-28T10:59:30.550Z,99067.16
2022-09-28T11:02:19.133Z,99062.91
2022-09-28T11:04:52.640Z,99071.00
2022-09-28T11:07:24.286Z,99070.19
2022-09-28T11:09:52.367Z,99065.72
2022-09-28T11:12:22.265Z,99063.94
2022-09-28T11:14:55.028Z,99065.16
2022-09-28T11:17:29.141Z,99062.06
2022-09-28T11:19:58.365Z,99061.19
2022-09-28T11:22:29.037Z,99064.03
2022-09-28T11:25:16.830Z,99050.78
2022-09-28T11:28:00.573Z,99062.94
2022-09-28T11:30:29.003Z,99062.16
2022-09-28T11:33:03.133Z,99060.78
2022-09-28T11:36:05.214Z,99062.63
2022-09-28T11:38:51.454Z,99059.91
2022-09-28T11:41:31.223Z,99061.34
2022-09-28T11:44:15.957Z,99065.78
2022-09-28T11:46:59.008Z,99060.00
2022-09-28T11:49:48.465Z,99065.44
2022-09-28T11:52:24.561Z,99069.63
2022-09-28T11:55:01.309Z,99070.81
2022-09-28T11:57:35.264Z,99067.94
2022-09-28T12:00:15.406Z,99068.31
2022-09-28T12:02:49.251Z,99074.41
2022-09-28T12:05:30.374Z,99066.91
2022-09-28T12:08:13.663Z,99071.19
2022-09-28T12:11:02.394Z,99077.53
2022-09-28T12:13:40.217Z,99077.84
2022-09-28T12:16:32.606Z,99072.06
2022-09-28T12:19:08.889Z,99073.06
2022-09-28T12:21:51.295Z,99075.88
2022-09-28T12:24:28.683Z,99065.34
2022-09-28T12:27:01.653Z,99076.72
2022-09-28T12:29:38.600Z,99072.38
2022-09-28T12:32:31.003Z,99070.16
2022-09-28T12:34:57.982Z,99070.25
2022-09-28T12:37:36.634Z,99071.84
2022-09-28T12:40:18.561Z,99075.47
2022-09-28T12:43:22.383Z,99073.72
2022-09-28T12:46:13.265Z,99073.97
2022-09-28T12:49:04.137Z,99070.44
2022-09-28T12:51:43.857Z,99069.06
2022-09-28T12:54:34.488Z,99067.09
2022-09-28T12:57:19.486Z,99070.88
2022-09-28T13:00:01.116Z,99075.75
2022-09-28T13:02:57.510Z,99067.97
2022-09-28T13:05:46.331Z,99066.56
2022-09-28T13:08:41.437Z,99072.19
2022-09-28T13:11:34.028Z,99067.31
2022-09-28T13:14:06.975Z,99068.41
2022-09-28T13:16:49.482Z,99072.63
2022-09-28T13:19:56.973Z,99068.09
2022-09-28T13:22:56.815Z,99065.56
2022-09-28T13:25:27.366Z,99068.31
2022-09-28T13:28:00.775Z,99058.59
2022-09-28T13:30:27.873Z,99074.41
2022-09-28T13:32:57.960Z,99074.38
2022-09-28T13:35:25.361Z,99074.69
2022-09-28T13:38:17.767Z,99070.88
2022-09-28T13:41:10.000Z,99066.31
2022-09-28T13:43:55.477Z,99069.84
2022-09-28T13:47:01.755Z,99076.69
2022-09-28T13:49:56.676Z,99079.38
2022-09-28T13:52:38.576Z,99077.69
2022-09-28T13:55:33.274Z,99075.03
2022-09-28T13:58:14.726Z,99074.31
2022-09-28T14:00:51.613Z,99076.34
2022-09-28T14:03:43.042Z,99076.28
2022-09-28T14:06:30.898Z,99085.06
2022-09-28T14:09:09.252Z,99090.41
2022-09-28T14:11:36.068Z,99084.78
2022-09-28T14:14:02.880Z,99089.03
2022-09-28T14:16:32.429Z,99086.03
2022-09-28T14:19:10.111Z,99097.59
2022-09-28T14:22:01.411Z,99098.25
2022-09-28T14:24:49.785Z,99099.78
2022-09-28T14:27:34.705Z,99103.66
2022-09-28T14:30:20.293Z,99108.16
2022-09-28T14:32:58.213Z,99112.59
2022-09-28T14:35:31.474Z,99107.63
2022-09-28T14:39:04.014Z,99105.31
2022-09-28T14:41:34.664Z,99110.56
2022-09-28T14:44:02.840Z,99109.81
2022-09-28T14:46:32.888Z,99117.97
2022-09-28T14:49:25.374Z,99122.59
2022-09-28T14:51:57.991Z,99129.34
2022-09-28T14:54:27.612Z,99134.94
2022-09-28T14:56:59.952Z,99136.34
2022-09-28T14:59:35.982Z,99136.84
2022-09-28T15:02:11.802Z,99131.38
2022-09-28T15:04:43.849Z,99133.22
2022-09-28T15:07:18.711Z,99142.56
2022-09-28T15:09:49.648Z,99136.59
2022-09-28T15:12:27.988Z,99144.47
2022-09-28T15:15:04.285Z,99146.97
2022-09-28T15:17:40.206Z,99144.56
2022-09-28T15:20:34.375Z,99144.13
2022-09-28T15:23:01.046Z,99135.66
2022-09-28T15:25:32.757Z,99139.22
2022-09-28T15:28:17.105Z,99140.97
2022-09-28T15:30:43.887Z,99144.06
2022-09-28T15:33:43.593Z,99145.47
2022-09-28T15:36:39.235Z,99151.16
2022-09-28T15:39:40.786Z,99154.00
2022-09-28T15:42:07.620Z,99143.19
2022-09-28T15:45:02.579Z,99146.44
2022-09-28T15:47:33.763Z,99153.78
2022-09-28T15:50:20.154Z,99155.09
2022-09-28T15:52:55.172Z,99152.84
2022-09-28T15:55:34.670Z,99157.97
2022-09-28T15:58:20.945Z,99160.28
2022-09-28T16:00:49.841Z,99165.38
2022-09-28T16:03:29.024Z,99161.16
2022-09-28T16:05:58.582Z,99156.59
2022-09-28T16:08:33.033Z,99162.81
2022-09-28T16:11:21.238Z,99166.31
2022-09-28T16:14:06.135Z,99170.31
2022-09-28T16:16:46.551Z,99173.19
2022-09-28T16:19:19.543Z,99174.84
2022-09-28T16:21:48.122Z,99180.38
2022-09-28T16:24:25.322Z,99180.09
2022-09-28T16:27:04.710Z,99180.38
2022-09-28T16:29:35.822Z,99189.75
2022-09-28T16:32:27.292Z,99191.81
2022-09-28T16:35:10.206Z,99200.63
2022-09-28T16:37:37.324Z,99205.28
2022-09-28T16:40:04.722Z,99200.88
2022-09-28T16:42:31.982Z,99207.75
2022-09-28T16:44:58.590Z,99208.31
2022-09-28T16:47:25.290Z,99207.63
2022-09-28T16:49:51.857Z,99211.59
2022-09-28T16:52:38.393Z,99205.00
2022-09-28T16:58:04.881Z,99206.63
2022-09-28T17:00:31.859Z,99208.81
2022-09-28T17:02:58.615Z,99214.91
2022-09-28T17:05:28.649Z,99213.78
2022-09-28T17:08:03.956Z,99220.81
2022-09-28T17:11:09.858Z,99217.47
2022-09-28T17:13:33.922Z,99219.25
2022-09-28T17:16:02.829Z,99216.88
2022-09-28T17:18:31.938Z,99220.72
2022-09-28T17:21:03.188Z,99225.31
2022-09-28T17:23:30.088Z,99225.41
2022-09-28T17:25:57.360Z,99232.69
2022-09-28T17:28:27.372Z,99227.31
2022-09-28T17:30:54.228Z,99231.97
2022-09-28T17:33:21.057Z,99238.00
2022-09-28T17:35:48.351Z,99234.41
2022-09-28T17:38:15.905Z,99235.22
2022-09-28T17:40:44.935Z,99236.31
2022-09-28T17:43:11.813Z,99235.34
2022-09-28T17:45:41.097Z,99240.13
2022-09-28T17:48:13.091Z,99238.94
2022-09-28T17:50:43.182Z,99237.66
2022-09-28T17:53:12.932Z,99245.53
2022-09-28T17:55:40.109Z,99240.75
2022-09-28T17:58:16.129Z,99249.25
2022-09-28T18:00:44.326Z,99240.84
2022-09-28T18:03:15.184Z,99242.16
2022-09-28T18:05:43.630Z,99238.63
2022-09-28T18:08:17.016Z,99242.56
2022-09-28T18:10:44.106Z,99247.66
2022-09-28T18:13:10.992Z,99251.78
2022-09-28T18:15:37.621Z,99257.72
2022-09-28T18:18:04.470Z,99253.97
2022-09-28T18:20:31.611Z,99261.09
2022-09-28T18:22:58.197Z,99257.81
2022-09-28T18:25:24.909Z,99258.63
2022-09-28T18:27:54.537Z,99269.59
2022-09-28T18:30:21.124Z,99275.38
2022-09-28T18:32:47.685Z,99273.72
2022-09-28T18:35:14.321Z,99275.63
2022-09-28T18:37:41.164Z,99280.34
2022-09-28T18:40:09.634Z,99276.53
2022-09-28T18:42:36.657Z,99278.44
2022-09-28T18:45:05.899Z,99281.31
2022-09-28T18:47:33.186Z,99286.53
2022-09-28T18:49:59.849Z,99290.34
2022-09-28T18:52:27.486Z,99294.84
2022-09-28T18:54:54.241Z,99293.72
2022-09-28T18:57:21.058Z,99292.06
2022-09-28T18:59:47.604Z,99306.66
2022-09-28T19:02:14.370Z,99295.16
2022-09-28T19:04:41.506Z,99301.38
2022-09-28T19:07:08.912Z,99306.84
2022-09-28T19:09:35.496Z,99307.06
2022-09-28T19:12:02.165Z,99300.34
2022-09-28T19:14:28.768Z,99311.16
2022-09-28T19:16:55.402Z,99313.06
2022-09-28T19:19:22.087Z,99309.88
2022-09-28T19:21:48.788Z,99310.09
2022-09-28T19:24:17.468Z,99313.31
2022-09-28T19:26:44.433Z,99310.25
2022-09-28T19:29:11.318Z,99312.41
2022-09-28T19:31:37.964Z,99313.63
2022-09-28T19:34:10.471Z,99316.56
2022-09-28T19:36:39.961Z,99316.97
2022-09-28T19:39:07.331Z,99311.00
2022-09-28T19:41:45.724Z,99312.34
2022-09-28T19:44:24.722Z,99319.59
2022-09-28T19:47:10.091Z,99323.38
2022-09-28T19:49:40.079Z,99322.81
2022-09-28T19:52:16.742Z,99332.53
2022-09-28T19:54:57.309Z,99320.81
2022-09-28T19:57:28.110Z,99315.94
2022-09-28T20:00:00.887Z,99324.13
2022-09-28T20:02:29.138Z,99331.63
2022-09-28T20:04:56.127Z,99324.97
2022-09-28T20:07:22.704Z,99327.47
2022-09-28T20:09:49.731Z,99328.91
2022-09-28T20:12:16.325Z,99338.13
2022-09-28T20:14:43.689Z,99341.31
2022-09-28T20:17:10.421Z,99352.91
2022-09-28T20:19:38.318Z,99349.00
2022-09-28T20:22:05.118Z,99350.16
2022-09-28T20:24:32.626Z,99348.84
2022-09-28T20:26:59.618Z,99353.34
2022-09-28T20:29:27.096Z,99352.53
2022-09-28T20:31:53.736Z,99357.47
2022-09-28T20:34:20.447Z,99357.75
2022-09-28T20:36:47.143Z,99355.38
2022-09-28T20:39:14.417Z,99366.16
2022-09-28T20:41:41.317Z,99366.41
2022-09-28T20:44:08.153Z,99372.22
2022-09-28T20:46:35.988Z,99373.41
2022-09-28T20:49:03.672Z,99368.91
2022-09-28T20:51:30.655Z,99371.50
2022-09-28T20:53:59.228Z,99368.56
2022-09-28T20:56:31.857Z,99379.59
2022-09-28T20:58:58.496Z,99381.94
2022-09-28T21:01:27.392Z,99380.66
2022-09-28T21:03:59.688Z,99387.88
2022-09-28T21:06:28.905Z,99376.38
2022-09-28T21:08:55.563Z,99379.81
2022-09-28T21:11:24.364Z,99391.19
2022-09-28T21:13:59.346Z,99382.44
2022-09-28T21:16:28.360Z,99385.03
2022-09-28T21:18:55.005Z,99388.84
2022-09-28T21:21:23.165Z,99381.94
2022-09-28T21:23:53.397Z,99382.44
2022-09-28T21:26:25.761Z,99389.66
2022-09-28T21:28:53.952Z,99396.53
2022-09-28T21:31:27.560Z,99397.84
2022-09-28T21:33:55.868Z,99401.16
2022-09-28T21:36:23.381Z,99396.63
2022-09-28T21:38:50.630Z,99403.03
2022-09-28T21:41:17.359Z,99400.66
2022-09-28T21:43:46.084Z,99405.16
2022-09-28T21:46:13.807Z,99404.56
2022-09-28T21:48:41.220Z,99407.19
2022-09-28T21:51:10.525Z,99415.59
2022-09-28T21:53:38.254Z,99422.94
2022-09-28T21:56:10.295Z,99419.28
2022-09-28T21:58:37.386Z,99423.69
2022-09-28T22:01:15.701Z,99420.56
2022-09-28T22:03:44.311Z,99419.75
2022-09-28T22:06:11.830Z,99419.88
2022-09-28T22:08:39.396Z,99422.00
2022-09-28T22:11:09.963Z,99420.31
2022-09-28T22:13:42.267Z,99420.22
2022-09-28T22:16:09.867Z,99431.47
2022-09-28T22:18:36.935Z,99425.31
2022-09-28T22:21:28.645Z,99424.47
2022-09-28T22:24:05.038Z,99431.13
2022-09-28T22:26:33.830Z,99423.09
2022-09-28T22:29:03.944Z,99429.94
2022-09-28T22:31:33.658Z,99433.84
2022-09-28T22:34:00.501Z,99425.06
2022-09-28T22:36:27.926Z,99435.03
2022-09-28T22:38:55.968Z,99433.72
2022-09-28T22:41:23.494Z,99429.31
2022-09-28T22:43:51.945Z,99428.38
2022-09-28T22:46:24.027Z,99427.16
2022-09-28T22:48:55.755Z,99430.13
2022-09-28T22:51:24.317Z,99434.97
2022-09-28T22:53:51.477Z,99441.91
2022-09-28T22:56:19.271Z,99442.50
2022-09-28T22:58:46.483Z,99442.34
2022-09-28T23:01:17.486Z,99438.53
2022-09-28T23:03:45.020Z,99450.31
2022-09-28T23:06:16.692Z,99441.91
2022-09-28T23:08:44.816Z,99443.91
2022-09-28T23:11:11.562Z,99437.97
2022-09-28T23:13:38.685Z,99441.66
2022-09-28T23:16:07.609Z,99444.56
2022-09-28T23:18:36.894Z,99448.00
2022-09-28T23:21:07.212Z,99437.72
2022-09-28T23:23:33.966Z,99442.53
2022-09-28T23:26:01.126Z,99439.09
2022-09-28T23:28:27.970Z,99445.03
2022-09-28T23:30:54.831Z,99438.00
2022-09-28T23:33:21.910Z,99441.22
2022-09-28T23:35:49.426Z,99440.47
2022-09-28T23:38:18.434Z,99444.13
2022-09-28T23:40:46.726Z,99438.41
2022-09-28T23:43:14.447Z,99444.91
2022-09-28T23:45:44.114Z,99444.06
2022-09-28T23:48:12.845Z,99447.50
2022-09-28T23:50:39.463Z,99444.06
2022-09-28T23:53:06.806Z,99437.41
2022-09-28T23:55:33.604Z,99438.13
2022-09-28T23:58:00.329Z,99435.66
